createdAt,value
2023-05-09T00:01:11.801Z,32.87
2023-05-09T00:03:38.942Z,33.73
2023-05-09T00:06:06.897Z,33.30
2023-05-09T00:08:33.640Z,32.63
2023-05-09T00:11:01.695Z,36.33
2023-05-09T00:13:28.596Z,32.63
2023-05-09T00:15:57.344Z,40.23
2023-05-09T00:18:24.044Z,33.27
2023-05-09T00:20:50.938Z,35.13
2023-05-09T00:23:17.892Z,37.83
2023-05-09T00:25:44.267Z,38.97
2023-05-09T00:28:10.841Z,35.77
2023-05-09T00:30:37.372Z,38.30
2023-05-09T00:33:03.956Z,34.47
2023-05-09T00:35:32.289Z,36.30
2023-05-09T00:37:59.515Z,35.77
2023-05-09T00:40:26.072Z,38.67
2023-05-09T00:42:52.728Z,39.93
2023-05-09T00:45:19.303Z,40.13
2023-05-09T00:47:45.847Z,41.90
2023-05-09T00:50:12.407Z,37.87
2023-05-09T00:52:39.110Z,36.17
2023-05-09T00:55:08.293Z,39.87
2023-05-09T00:57:35.116Z,39.13
2023-05-09T01:00:01.894Z,33.27
2023-05-09T01:02:28.818Z,42.87
2023-05-09T01:04:58.594Z,40.10
2023-05-09T01:07:38.311Z,38.50
2023-05-09T01:10:26.551Z,38.20
2023-05-09T01:13:01.998Z,37.77
2023-05-09T01:15:57.738Z,37.53
2023-05-09T01:18:37.108Z,40.10
2023-05-09T01:21:11.280Z,34.20
2023-05-09T01:23:46.869Z,40.00
2023-05-09T01:26:50.130Z,37.23
2023-05-09T01:29:39.615Z,39.43
2023-05-09T01:32:10.749Z,43.00
2023-05-09T01:34:40.311Z,38.53
2023-05-09T01:37:08.283Z,36.80
2023-05-09T01:39:39.561Z,44.60
2023-05-09T01:42:08.549Z,40.50
2023-05-09T01:44:43.627Z,42.93
2023-05-09T01:47:11.771Z,38.53
2023-05-09T01:49:41.112Z,40.10
2023-05-09T01:52:10.052Z,44.10
2023-05-09T01:54:38.478Z,41.00
2023-05-09T01:57:07.796Z,39.03
2023-05-09T01:59:35.208Z,38.93
2023-05-09T02:02:03.770Z,42.13
2023-05-09T02:04:31.144Z,41.37
2023-05-09T02:06:59.043Z,36.43
2023-05-09T02:09:26.013Z,36.63
2023-05-09T02:11:52.481Z,36.23
2023-05-09T02:14:18.996Z,42.10
2023-05-09T02:16:45.735Z,37.73
2023-05-09T02:19:12.239Z,34.17
2023-05-09T02:21:38.984Z,36.83
2023-05-09T02:24:06.048Z,38.43
2023-05-09T02:26:33.329Z,34.83
2023-05-09T02:29:02.284Z,40.97
2023-05-09T02:31:30.804Z,34.57
2023-05-09T02:33:57.918Z,30.90
2023-05-09T02:36:24.619Z,33.90
2023-05-09T02:38:51.437Z,33.90
2023-05-09T02:41:18.080Z,32.33
2023-05-09T02:43:44.937Z,32.93
2023-05-09T02:46:11.531Z,34.07
2023-05-09T02:48:38.079Z,30.37
2023-05-09T02:51:04.546Z,32.73
2023-05-09T02:53:31.180Z,26.87
2023-05-09T02:55:57.748Z,31.53
2023-05-09T02:58:24.195Z,27.37
2023-05-09T03:00:50.991Z,28.03
2023-05-09T03:03:18.015Z,25.43
2023-05-09T03:05:44.766Z,27.90
2023-05-09T03:08:11.229Z,27.30
2023-05-09T03:10:37.665Z,24.67
2023-05-09T03:13:04.251Z,26.70
2023-05-09T03:15:30.806Z,26.70
2023-05-09T03:17:57.377Z,24.93
2023-05-09T03:20:23.815Z,24.60
2023-05-09T03:22:50.285Z,25.17
2023-05-09T03:25:17.033Z,23.03
2023-05-09T03:27:43.705Z,21.50
2023-05-09T03:30:10.661Z,21.83
2023-05-09T03:32:37.257Z,22.10
2023-05-09T03:35:04.090Z,21.33
2023-05-09T03:37:30.623Z,22.27
2023-05-09T03:39:57.116Z,25.33
2023-05-09T03:42:23.664Z,26.53
2023-05-09T03:44:50.158Z,25.63
2023-05-09T03:47:16.593Z,23.77
2023-05-09T03:49:43.055Z,26.23
2023-05-09T03:52:09.543Z,27.13
2023-05-09T03:54:35.966Z,26.63
2023-05-09T03:57:02.422Z,24.47
2023-05-09T03:59:28.939Z,24.87
2023-05-09T04:01:56.065Z,26.90
2023-05-09T04:04:22.585Z,24.47
2023-05-09T04:06:49.284Z,22.60
2023-05-09T04:09:15.914Z,27.90
2023-05-09T04:11:42.444Z,22.07
2023-05-09T04:14:08.967Z,24.37
2023-05-09T04:16:35.569Z,23.70
2023-05-09T04:19:02.704Z,24.93
2023-05-09T04:21:29.189Z,22.97
2023-05-09T04:23:55.786Z,23.10
2023-05-09T04:26:22.861Z,24.17
2023-05-09T04:28:49.336Z,20.03
2023-05-09T04:31:15.964Z,20.30
2023-05-09T04:33:42.460Z,24.20
2023-05-09T04:36:09.159Z,22.63
2023-05-09T04:38:35.552Z,23.30
2023-05-09T04:41:02.063Z,21.80
2023-05-09T04:43:28.563Z,20.53
2023-05-09T04:45:55.103Z,22.97
2023-05-09T04:48:21.577Z,24.17
2023-05-09T04:50:50.825Z,22.57
2023-05-09T04:53:17.271Z,21.17
2023-05-09T04:55:43.950Z,24.83
2023-05-09T04:58:10.377Z,19.40
2023-05-09T05:00:36.841Z,26.50
2023-05-09T05:03:03.418Z,20.53
2023-05-09T05:05:30.294Z,20.47
2023-05-09T05:07:57.102Z,21.53
2023-05-09T05:10:23.532Z,20.00
2023-05-09T05:12:50.123Z,23.20
2023-05-09T05:15:19.396Z,22.07
2023-05-09T05:17:45.893Z,22.10
2023-05-09T05:20:12.456Z,23.23
2023-05-09T05:22:39.012Z,18.63
2023-05-09T05:25:05.948Z,22.90
2023-05-09T05:27:32.465Z,22.67
2023-05-09T05:29:59.002Z,21.80
2023-05-09T05:32:25.605Z,21.60
2023-05-09T05:34:52.440Z,22.03
2023-05-09T05:37:18.942Z,23.57
2023-05-09T05:39:45.496Z,21.10
2023-05-09T05:42:11.951Z,20.70
2023-05-09T05:44:38.430Z,19.90
2023-05-09T05:47:04.929Z,20.33
2023-05-09T05:49:31.443Z,20.50
2023-05-09T05:51:57.861Z,24.10
2023-05-09T05:54:24.404Z,21.80
2023-05-09T05:56:51.005Z,20.00
2023-05-09T05:59:17.457Z,20.13
2023-05-09T06:01:43.962Z,20.67
2023-05-09T06:04:10.594Z,20.43
2023-05-09T06:06:37.249Z,17.60
2023-05-09T06:09:03.700Z,17.93
2023-05-09T06:11:30.113Z,18.20
2023-05-09T06:13:56.646Z,19.67
2023-05-09T06:16:23.180Z,19.47
2023-05-09T06:18:49.882Z,18.43
2023-05-09T06:21:16.394Z,17.93
2023-05-09T06:23:57.170Z,20.13
2023-05-09T06:26:29.841Z,17.07
2023-05-09T06:28:56.411Z,16.53
2023-05-09T06:31:25.413Z,16.87
2023-05-09T06:33:52.367Z,16.47
2023-05-09T06:36:18.840Z,18.10
2023-05-09T06:38:45.257Z,15.73
2023-05-09T06:41:11.706Z,16.27
2023-05-09T06:43:38.174Z,13.40
2023-05-09T06:46:04.630Z,13.27
2023-05-09T06:48:31.129Z,14.60
2023-05-09T06:50:58.301Z,12.60
2023-05-09T06:53:24.820Z,17.07
2023-05-09T06:55:51.303Z,15.17
2023-05-09T06:58:17.822Z,13.13
2023-05-09T07:00:44.253Z,14.57
2023-05-09T07:03:11.676Z,13.40
2023-05-09T07:05:38.340Z,10.83
2023-05-09T07:08:04.932Z,14.40
2023-05-09T07:10:31.702Z,15.27
2023-05-09T07:12:58.530Z,12.30
2023-05-09T07:15:39.921Z,13.90
2023-05-09T07:18:08.232Z,15.87
2023-05-09T07:20:34.757Z,13.73
2023-05-09T07:23:03.931Z,14.67
2023-05-09T07:25:30.765Z,15.63
2023-05-09T07:27:58.330Z,17.70
2023-05-09T07:30:25.256Z,14.27
2023-05-09T07:32:52.370Z,14.03
2023-05-09T07:35:19.642Z,13.77
2023-05-09T07:37:46.434Z,16.03
2023-05-09T07:40:13.472Z,14.17
2023-05-09T07:42:40.206Z,14.27
2023-05-09T07:45:07.281Z,12.63
2023-05-09T07:47:33.740Z,12.20
2023-05-09T07:50:00.377Z,15.87
2023-05-09T07:52:26.793Z,14.93
2023-05-09T07:54:54.619Z,12.60
2023-05-09T07:57:21.103Z,11.63
2023-05-09T07:59:47.584Z,16.47
2023-05-09T08:02:14.034Z,13.37
2023-05-09T08:04:41.589Z,13.57
2023-05-09T08:07:09.213Z,10.90
2023-05-09T08:09:35.913Z,12.93
2023-05-09T08:12:02.446Z,11.93
2023-05-09T08:14:29.002Z,12.30
2023-05-09T08:16:55.628Z,11.47
2023-05-09T08:19:23.634Z,9.73
2023-05-09T08:21:50.188Z,11.03
2023-05-09T08:24:16.679Z,10.97
2023-05-09T08:26:44.130Z,11.97
2023-05-09T08:29:10.698Z,13.03
2023-05-09T08:31:37.156Z,11.50
2023-05-09T08:34:04.463Z,11.80
2023-05-09T08:36:31.295Z,10.70
2023-05-09T08:38:57.828Z,10.47
2023-05-09T08:41:28.106Z,11.40
2023-05-09T08:43:55.454Z,9.97
2023-05-09T08:46:30.957Z,10.07
2023-05-09T08:48:58.596Z,10.43
2023-05-09T08:51:25.591Z,9.07
2023-05-09T08:53:52.306Z,8.93
2023-05-09T08:56:18.983Z,9.27
2023-05-09T08:58:45.492Z,9.60
2023-05-09T09:01:14.368Z,7.33
2023-05-09T09:03:47.513Z,8.80
2023-05-09T09:06:14.436Z,10.40
2023-05-09T09:08:41.980Z,7.07
2023-05-09T09:11:13.198Z,8.30
2023-05-09T09:13:41.780Z,7.87
2023-05-09T09:16:18.113Z,7.33
2023-05-09T09:18:45.857Z,8.63
2023-05-09T09:21:15.761Z,10.33
2023-05-09T09:23:43.642Z,8.57
2023-05-09T09:26:10.302Z,7.00
2023-05-09T09:28:36.842Z,8.83
2023-05-09T09:31:31.563Z,10.33
2023-05-09T09:34:03.940Z,8.17
2023-05-09T09:36:32.485Z,7.53
2023-05-09T09:39:01.188Z,6.63
2023-05-09T09:41:38.599Z,6.37
2023-05-09T09:44:08.447Z,6.77
2023-05-09T09:46:45.009Z,6.63
2023-05-09T09:49:12.864Z,6.80
2023-05-09T09:51:40.212Z,6.93
2023-05-09T09:54:07.983Z,7.23
2023-05-09T09:56:42.001Z,7.43
2023-05-09T09:59:16.583Z,8.37
2023-05-09T10:02:04.926Z,7.50
2023-05-09T10:04:37.516Z,6.10
2023-05-09T10:07:06.509Z,8.37
2023-05-09T10:09:34.569Z,8.30
2023-05-09T10:12:06.460Z,10.90
2023-05-09T10:14:35.460Z,7.77
2023-05-09T10:17:04.098Z,9.00
2023-05-09T10:19:31.936Z,8.40
2023-05-09T10:22:04.317Z,7.40
2023-05-09T10:25:00.477Z,8.57
2023-05-09T10:27:30.510Z,8.37
2023-05-09T10:30:13.424Z,6.87
2023-05-09T10:33:08.810Z,8.00
2023-05-09T10:35:46.366Z,7.40
2023-05-09T10:38:13.831Z,5.37
2023-05-09T10:40:40.897Z,5.90
2023-05-09T10:43:08.283Z,5.80
2023-05-09T10:45:35.235Z,8.47
2023-05-09T10:48:03.982Z,4.43
2023-05-09T10:50:31.260Z,8.27
2023-05-09T10:53:03.931Z,6.43
2023-05-09T10:55:37.780Z,5.90
2023-05-09T10:58:40.717Z,5.80
2023-05-09T11:01:07.308Z,4.20
2023-05-09T11:03:54.964Z,5.87
2023-05-09T11:06:45.206Z,4.23
2023-05-09T11:09:41.434Z,4.50
2023-05-09T11:12:15.857Z,7.43
2023-05-09T11:14:45.055Z,5.30
2023-05-09T11:17:35.697Z,4.90
2023-05-09T11:20:06.734Z,6.63
2023-05-09T11:22:41.420Z,5.83
2023-05-09T11:25:09.772Z,4.67
2023-05-09T11:27:48.681Z,6.97
2023-05-09T11:30:17.521Z,7.47
2023-05-09T11:32:55.152Z,7.30
2023-05-09T11:35:23.620Z,6.30
2023-05-09T11:37:53.008Z,7.47
2023-05-09T11:40:21.731Z,5.70
2023-05-09T11:42:50.353Z,5.60
2023-05-09T11:45:17.530Z,6.70
2023-05-09T11:47:45.472Z,6.30
2023-05-09T11:50:13.759Z,6.23
2023-05-09T11:52:41.512Z,7.83
2023-05-09T11:55:13.007Z,5.83
2023-05-09T11:57:41.633Z,6.83
2023-05-09T12:00:10.474Z,13.67
2023-05-09T12:02:40.148Z,5.63
2023-05-09T12:05:11.816Z,6.87
2023-05-09T12:07:39.636Z,6.00
2023-05-09T12:10:12.757Z,7.83
2023-05-09T12:12:47.800Z,7.10
2023-05-09T12:15:15.137Z,5.87
2023-05-09T12:17:42.993Z,6.70
2023-05-09T12:20:10.229Z,6.53
2023-05-09T12:22:40.199Z,7.17
2023-05-09T12:25:10.223Z,6.47
2023-05-09T12:27:38.505Z,6.63
2023-05-09T12:30:08.640Z,6.67
2023-05-09T12:32:36.762Z,6.67
2023-05-09T12:35:03.695Z,6.80
2023-05-09T12:37:32.702Z,4.27
2023-05-09T12:40:11.384Z,5.17
2023-05-09T12:42:38.789Z,5.53
2023-05-09T12:45:08.627Z,5.30
2023-05-09T12:47:35.237Z,4.97
2023-05-09T12:50:04.351Z,6.63
2023-05-09T12:52:44.190Z,4.23
2023-05-09T12:55:21.062Z,5.37
2023-05-09T12:57:59.458Z,5.57
2023-05-09T13:00:26.290Z,6.00
2023-05-09T13:02:53.018Z,6.40
2023-05-09T13:05:21.569Z,4.67
2023-05-09T13:07:50.467Z,5.17
2023-05-09T13:10:19.509Z,5.00
2023-05-09T13:12:48.393Z,5.80
2023-05-09T13:15:16.430Z,5.97
2023-05-09T13:17:43.148Z,4.87
2023-05-09T13:20:10.639Z,4.73
2023-05-09T13:22:37.221Z,4.33
2023-05-09T13:25:04.264Z,4.50
2023-05-09T13:27:30.997Z,4.47
2023-05-09T13:29:57.508Z,5.87
2023-05-09T13:32:25.069Z,4.77
2023-05-09T13:34:52.239Z,5.43
2023-05-09T13:37:18.799Z,4.97
2023-05-09T13:39:45.507Z,7.40
2023-05-09T13:42:11.967Z,5.10
2023-05-09T13:44:38.506Z,4.47
2023-05-09T13:47:07.615Z,4.40
2023-05-09T13:49:34.765Z,4.37
2023-05-09T13:52:01.593Z,5.33
2023-05-09T13:54:29.772Z,5.67
2023-05-09T13:56:56.251Z,5.73
2023-05-09T13:59:22.687Z,4.30
2023-05-09T14:01:49.210Z,4.23
2023-05-09T14:04:15.824Z,5.43
2023-05-09T14:06:48.090Z,4.30
2023-05-09T14:09:15.671Z,6.23
2023-05-09T14:11:42.744Z,7.30
2023-05-09T14:14:09.188Z,6.53
2023-05-09T14:16:35.774Z,5.97
2023-05-09T14:19:02.399Z,5.27
2023-05-09T14:21:28.956Z,5.07
2023-05-09T14:23:55.851Z,5.63
2023-05-09T14:26:22.361Z,5.33
2023-05-09T14:28:48.792Z,6.63
2023-05-09T14:31:15.268Z,5.70
2023-05-09T14:33:41.718Z,5.63
2023-05-09T14:36:08.251Z,7.47
2023-05-09T14:38:35.647Z,5.47
2023-05-09T14:41:02.726Z,5.77
2023-05-09T14:43:29.509Z,6.07
2023-05-09T14:45:57.141Z,5.63
2023-05-09T14:48:23.561Z,6.87
2023-05-09T14:50:50.254Z,6.57
2023-05-09T14:53:16.846Z,5.40
2023-05-09T14:55:43.324Z,5.67
2023-05-09T14:58:09.806Z,5.67
2023-05-09T15:00:36.272Z,4.93
2023-05-09T15:03:03.227Z,5.13
2023-05-09T15:05:30.076Z,6.27
2023-05-09T15:07:56.519Z,6.50
2023-05-09T15:10:23.163Z,5.73
2023-05-09T15:12:49.675Z,6.40
2023-05-09T15:15:18.865Z,6.03
2023-05-09T15:17:45.476Z,5.63
2023-05-09T15:20:15.201Z,7.23
2023-05-09T15:22:42.217Z,5.40
2023-05-09T15:25:09.282Z,5.20
2023-05-09T15:27:36.270Z,5.07
2023-05-09T15:30:03.661Z,6.53
2023-05-09T15:32:30.093Z,16.03
2023-05-09T15:34:56.620Z,6.53
2023-05-09T15:37:23.216Z,5.27
2023-05-09T15:39:49.694Z,5.37
2023-05-09T15:42:16.417Z,5.50
2023-05-09T15:44:43.086Z,4.73
2023-05-09T15:47:10.361Z,5.40
2023-05-09T15:49:37.032Z,5.47
2023-05-09T15:52:04.665Z,6.57
2023-05-09T15:54:32.242Z,6.20
2023-05-09T15:56:59.379Z,6.40
2023-05-09T15:59:26.463Z,6.33
2023-05-09T16:01:53.684Z,5.27
2023-05-09T16:04:20.528Z,4.27
2023-05-09T16:06:47.390Z,4.30
2023-05-09T16:09:13.874Z,5.43
2023-05-09T16:11:41.554Z,5.67
2023-05-09T16:14:11.497Z,5.50
2023-05-09T16:16:38.760Z,7.03
2023-05-09T16:19:08.749Z,8.30
2023-05-09T16:21:37.721Z,9.63
2023-05-09T16:24:05.028Z,6.87
2023-05-09T16:26:31.817Z,5.83
2023-05-09T16:28:58.353Z,5.77
2023-05-09T16:31:26.577Z,7.23
2023-05-09T16:33:54.563Z,6.90
2023-05-09T16:36:21.368Z,6.73
2023-05-09T16:38:48.174Z,6.90
2023-05-09T16:41:14.955Z,6.10
2023-05-09T16:43:41.541Z,5.80
2023-05-09T16:46:08.160Z,5.20
2023-05-09T16:48:34.638Z,5.37
2023-05-09T16:51:01.159Z,4.73
2023-05-09T16:53:28.089Z,5.57
2023-05-09T16:55:54.854Z,5.13
2023-05-09T16:58:21.552Z,6.13
2023-05-09T17:00:48.400Z,5.50
2023-05-09T17:03:14.947Z,5.13
2023-05-09T17:05:41.382Z,4.87
2023-05-09T17:08:07.875Z,4.20
2023-05-09T17:10:35.813Z,5.33
2023-05-09T17:13:07.691Z,5.73
2023-05-09T17:15:34.773Z,4.87
2023-05-09T17:18:01.631Z,6.57
2023-05-09T17:20:28.885Z,8.33
2023-05-09T17:22:56.367Z,6.20
2023-05-09T17:25:23.277Z,5.50
2023-05-09T17:27:49.764Z,5.23
2023-05-09T17:30:16.623Z,5.97
2023-05-09T17:32:43.434Z,5.83
2023-05-09T17:35:10.712Z,5.83
2023-05-09T17:37:37.158Z,5.50
2023-05-09T17:40:05.249Z,5.77
2023-05-09T17:42:32.207Z,6.57
2023-05-09T17:44:58.656Z,5.07
2023-05-09T17:47:25.218Z,5.70
2023-05-09T17:49:52.113Z,5.47
2023-05-09T17:52:18.604Z,4.53
2023-05-09T17:54:45.467Z,5.07
2023-05-09T17:57:12.038Z,4.03
2023-05-09T17:59:40.614Z,4.30
2023-05-09T18:02:07.896Z,5.90
2023-05-09T18:04:34.705Z,5.37
2023-05-09T18:07:01.559Z,4.80
2023-05-09T18:09:28.596Z,5.33
2023-05-09T18:11:55.277Z,4.63
2023-05-09T18:14:21.803Z,5.57
2023-05-09T18:16:48.342Z,4.40
2023-05-09T18:19:14.740Z,7.03
2023-05-09T18:21:41.496Z,5.90
2023-05-09T18:24:09.296Z,6.37
2023-05-09T18:26:35.912Z,8.07
2023-05-09T18:29:02.399Z,6.83
2023-05-09T18:31:29.504Z,5.27
2023-05-09T18:33:56.319Z,5.10
2023-05-09T18:36:23.387Z,5.57
2023-05-09T18:38:49.786Z,6.00
2023-05-09T18:41:17.268Z,6.17
2023-05-09T18:43:46.754Z,6.27
2023-05-09T18:46:17.762Z,5.40
2023-05-09T18:48:45.202Z,5.80
2023-05-09T18:51:12.082Z,7.40
2023-05-09T18:53:38.532Z,5.57
2023-05-09T18:56:05.279Z,7.50
2023-05-09T18:58:32.416Z,5.77
2023-05-09T19:00:59.030Z,6.23
2023-05-09T19:03:25.618Z,6.57
2023-05-09T19:05:52.049Z,6.43
2023-05-09T19:08:18.500Z,5.27
2023-05-09T19:10:45.561Z,6.10
2023-05-09T19:13:14.717Z,5.67
2023-05-09T19:15:42.589Z,6.47
2023-05-09T19:18:09.167Z,5.07
2023-05-09T19:20:48.820Z,7.23
2023-05-09T19:23:15.534Z,5.43
2023-05-09T19:25:42.037Z,6.63
2023-05-09T19:28:08.431Z,7.07
2023-05-09T19:30:36.011Z,7.43
2023-05-09T19:33:02.502Z,7.07
2023-05-09T19:35:28.942Z,5.97
2023-05-09T19:37:55.645Z,8.20
2023-05-09T19:40:22.123Z,6.23
2023-05-09T19:42:48.602Z,6.33
2023-05-09T19:45:15.181Z,7.50
2023-05-09T19:47:42.640Z,8.10
2023-05-09T19:50:09.766Z,7.63
2023-05-09T19:52:37.166Z,7.47
2023-05-09T19:55:04.361Z,7.97
2023-05-09T19:57:30.833Z,7.90
2023-05-09T19:59:58.423Z,8.67
2023-05-09T20:02:25.095Z,7.90
2023-05-09T20:04:51.858Z,10.47
2023-05-09T20:07:18.748Z,7.63
2023-05-09T20:09:45.265Z,7.87
2023-05-09T20:12:13.030Z,9.53
2023-05-09T20:14:39.564Z,9.83
2023-05-09T20:17:06.517Z,10.77
2023-05-09T20:19:33.191Z,8.40
2023-05-09T20:22:01.113Z,9.77
2023-05-09T20:24:27.896Z,10.00
2023-05-09T20:26:57.353Z,9.80
2023-05-09T20:29:25.470Z,10.17
2023-05-09T20:31:52.265Z,11.30
2023-05-09T20:34:20.792Z,11.10
2023-05-09T20:36:50.726Z,12.13
2023-05-09T20:39:18.013Z,11.37
2023-05-09T20:41:45.522Z,10.17
2023-05-09T20:44:13.304Z,9.43
2023-05-09T20:46:43.356Z,10.57
2023-05-09T20:49:09.849Z,8.70
2023-05-09T20:51:36.463Z,9.90
2023-05-09T20:54:03.906Z,11.00
2023-05-09T20:56:30.472Z,13.10
2023-05-09T20:59:00.927Z,10.40
2023-05-09T21:01:27.610Z,11.50
2023-05-09T21:03:54.265Z,9.13
2023-05-09T21:06:21.013Z,10.70
2023-05-09T21:08:47.447Z,8.43
2023-05-09T21:11:13.925Z,9.67
2023-05-09T21:13:40.461Z,8.70
2023-05-09T21:16:07.112Z,10.50
2023-05-09T21:18:33.560Z,11.80
2023-05-09T21:21:08.052Z,9.13
2023-05-09T21:23:35.048Z,10.60
2023-05-09T21:26:02.448Z,10.27
2023-05-09T21:28:29.318Z,11.23
2023-05-09T21:30:56.337Z,10.90
2023-05-09T21:33:23.060Z,11.70
2023-05-09T21:35:49.520Z,9.73
2023-05-09T21:38:15.980Z,10.17
2023-05-09T21:40:42.445Z,12.13
2023-05-09T21:43:09.033Z,11.57
2023-05-09T21:45:35.487Z,13.23
2023-05-09T21:48:02.099Z,13.70
2023-05-09T21:50:28.673Z,16.13
2023-05-09T21:52:56.297Z,15.27
2023-05-09T21:55:23.000Z,15.80
2023-05-09T21:57:49.396Z,14.67
2023-05-09T22:00:17.038Z,16.00
2023-05-09T22:02:44.013Z,18.60
2023-05-09T22:05:11.529Z,16.33
2023-05-09T22:07:38.179Z,16.63
2023-05-09T22:10:05.054Z,15.00
2023-05-09T22:12:31.677Z,16.73
2023-05-09T22:14:58.076Z,17.77
2023-05-09T22:17:24.701Z,15.80
2023-05-09T22:19:51.194Z,17.63
2023-05-09T22:22:17.719Z,18.57
2023-05-09T22:24:44.228Z,19.83
2023-05-09T22:27:10.680Z,21.13
2023-05-09T22:29:37.112Z,20.57
2023-05-09T22:32:04.227Z,20.77
2023-05-09T22:34:30.989Z,21.27
2023-05-09T22:36:57.477Z,21.63
2023-05-09T22:39:24.075Z,21.73
2023-05-09T22:41:50.601Z,22.23
2023-05-09T22:44:17.028Z,20.07
2023-05-09T22:46:43.481Z,20.53
2023-05-09T22:49:10.008Z,21.83
2023-05-09T22:51:36.494Z,21.30
2023-05-09T22:54:03.034Z,17.17
2023-05-09T22:56:29.496Z,22.50
2023-05-09T22:58:56.007Z,20.90
2023-05-09T23:01:22.471Z,20.23
2023-05-09T23:03:48.902Z,20.27
2023-05-09T23:06:16.477Z,22.13
2023-05-09T23:08:43.307Z,19.87
2023-05-09T23:11:09.774Z,22.17
2023-05-09T23:13:36.176Z,23.70
2023-05-09T23:16:03.532Z,24.00
2023-05-09T23:18:30.065Z,23.27
2023-05-09T23:20:56.498Z,27.60
2023-05-09T23:23:22.914Z,23.60
2023-05-09T23:25:49.361Z,23.73
2023-05-09T23:28:16.169Z,25.33
2023-05-09T23:30:42.655Z,24.33
2023-05-09T23:33:09.122Z,23.57
2023-05-09T23:35:36.006Z,26.50
2023-05-09T23:38:04.453Z,24.77
2023-05-09T23:40:30.952Z,24.57
2023-05-09T23:42:57.441Z,26.47
2023-05-09T23:45:23.957Z,28.07
2023-05-09T23:47:50.545Z,25.47
2023-05-09T23:50:17.509Z,25.23
2023-05-09T23:52:44.393Z,23.50
2023-05-09T23:55:10.830Z,28.33
2023-05-09T23:57:37.364Z,27.83
